Terminal Aerodrome Forecast
Issued by NWS Upton, NY

Home | Current Version | Previous Version | Text Only | Print | Product List | Glossary On
Versions: 1 2 3 4 5 6 7 8 9 10 11 12 13 14 15 16 17 18 19 20 21 22 23 24 25 26 27 28 29
000
FTUS41 KOKX 010520
TAFISP
TAF
KISP 010520Z 0106/0206 VRB05KT P6SM SCT250
     FM011100 35007KT P6SM FEW050
     FM011700 18009KT P6SM SCT050
     FM020200 VRB03KT P6SM SCT040=

USA.gov is the U.S. government's official web portal to all federal, state and local government web resources and services.